sensor_id;sensor_type;location;lat;lon;timestamp;P1;durP1;ratioP1;P2;durP2;ratioP2
78004;SDS011;67209;51.698;-0.292;2023-05-10T00:02:24;4.43;;;2.35;;
78004;SDS011;67209;51.698;-0.292;2023-05-10T00:04:51;6.00;;;2.53;;
78004;SDS011;67209;51.698;-0.292;2023-05-10T00:07:17;6.75;;;2.63;;
78004;SDS011;67209;51.698;-0.292;2023-05-10T00:09:43;7.20;;;2.60;;
78004;SDS011;67209;51.698;-0.292;2023-05-10T00:12:09;5.07;;;2.30;;
78004;SDS011;67209;51.698;-0.292;2023-05-10T00:14:35;4.80;;;2.47;;
78004;SDS011;67209;51.698;-0.292;2023-05-10T00:17:01;7.35;;;2.72;;
78004;SDS011;67209;51.698;-0.292;2023-05-10T00:19:27;5.47;;;2.60;;
78004;SDS011;67209;51.698;-0.292;2023-05-10T00:21:53;5.40;;;2.35;;
78004;SDS011;67209;51.698;-0.292;2023-05-10T00:24:19;4.68;;;2.83;;
78004;SDS011;67209;51.698;-0.292;2023-05-10T00:26:45;5.85;;;2.67;;
78004;SDS011;67209;51.698;-0.292;2023-05-10T00:29:11;8.63;;;2.60;;
78004;SDS011;67209;51.698;-0.292;2023-05-10T00:31:37;7.68;;;2.58;;
78004;SDS011;67209;51.698;-0.292;2023-05-10T00:34:03;6.13;;;2.50;;
78004;SDS011;67209;51.698;-0.292;2023-05-10T00:36:29;7.55;;;2.70;;
78004;SDS011;67209;51.698;-0.292;2023-05-10T00:38:56;5.45;;;2.78;;
78004;SDS011;67209;51.698;-0.292;2023-05-10T00:41:22;6.72;;;2.70;;
78004;SDS011;67209;51.698;-0.292;2023-05-10T00:43:48;6.25;;;2.53;;
78004;SDS011;67209;51.698;-0.292;2023-05-10T00:46:14;8.10;;;3.28;;
78004;SDS011;67209;51.698;-0.292;2023-05-10T00:48:41;7.35;;;2.90;;
78004;SDS011;67209;51.698;-0.292;2023-05-10T00:51:07;5.82;;;2.90;;
78004;SDS011;67209;51.698;-0.292;2023-05-10T00:53:34;9.73;;;2.88;;
78004;SDS011;67209;51.698;-0.292;2023-05-10T00:56:00;5.80;;;2.70;;
78004;SDS011;67209;51.698;-0.292;2023-05-10T00:58:28;6.15;;;2.20;;
78004;SDS011;67209;51.698;-0.292;2023-05-10T01:00:55;5.97;;;2.42;;
78004;SDS011;67209;51.698;-0.292;2023-05-10T01:03:22;8.05;;;2.70;;
78004;SDS011;67209;51.698;-0.292;2023-05-10T01:05:48;9.88;;;2.65;;
78004;SDS011;67209;51.698;-0.292;2023-05-10T01:08:14;6.50;;;2.42;;
78004;SDS011;67209;51.698;-0.292;2023-05-10T01:10:41;7.72;;;2.60;;
78004;SDS011;67209;51.698;-0.292;2023-05-10T01:13:07;7.28;;;3.25;;
78004;SDS011;67209;51.698;-0.292;2023-05-10T01:15:33;5.93;;;3.17;;
78004;SDS011;67209;51.698;-0.292;2023-05-10T01:17:59;7.15;;;2.90;;
78004;SDS011;67209;51.698;-0.292;2023-05-10T01:20:26;8.65;;;3.53;;
78004;SDS011;67209;51.698;-0.292;2023-05-10T01:33:30;10.45;;;3.40;;
78004;SDS011;67209;51.698;-0.292;2023-05-10T01:36:03;8.05;;;2.90;;
78004;SDS011;67209;51.698;-0.292;2023-05-10T01:46:32;8.10;;;3.20;;
78004;SDS011;67209;51.698;-0.292;2023-05-10T01:48:59;8.10;;;2.95;;
78004;SDS011;67209;51.698;-0.292;2023-05-10T01:51:28;8.68;;;3.20;;
78004;SDS011;67209;51.698;-0.292;2023-05-10T01:54:00;8.27;;;3.22;;
78004;SDS011;67209;51.698;-0.292;2023-05-10T01:56:28;7.32;;;3.30;;
78004;SDS011;67209;51.698;-0.292;2023-05-10T01:58:55;9.18;;;3.33;;
78004;SDS011;67209;51.698;-0.292;2023-05-10T02:01:22;7.75;;;3.20;;
78004;SDS011;67209;51.698;-0.292;2023-05-10T02:03:49;10.10;;;3.70;;
78004;SDS011;67209;51.698;-0.292;2023-05-10T02:06:16;9.77;;;3.15;;
78004;SDS011;67209;51.698;-0.292;2023-05-10T02:08:43;10.00;;;3.28;;
78004;SDS011;67209;51.698;-0.292;2023-05-10T02:11:12;8.50;;;3.17;;
78004;SDS011;67209;51.698;-0.292;2023-05-10T02:13:38;7.60;;;3.85;;
78004;SDS011;67209;51.698;-0.292;2023-05-10T02:16:05;10.25;;;3.75;;
78004;SDS011;67209;51.698;-0.292;2023-05-10T02:18:32;13.57;;;3.92;;
78004;SDS011;67209;51.698;-0.292;2023-05-10T02:20:59;7.82;;;3.28;;
78004;SDS011;67209;51.698;-0.292;2023-05-10T02:23:25;7.90;;;3.58;;
78004;SDS011;67209;51.698;-0.292;2023-05-10T02:25:51;12.25;;;3.95;;
78004;SDS011;67209;51.698;-0.292;2023-05-10T02:28:19;8.13;;;3.65;;
78004;SDS011;67209;51.698;-0.292;2023-05-10T02:30:46;11.48;;;3.72;;
78004;SDS011;67209;51.698;-0.292;2023-05-10T02:33:13;8.35;;;3.53;;
78004;SDS011;67209;51.698;-0.292;2023-05-10T02:35:39;8.75;;;3.97;;
78004;SDS011;67209;51.698;-0.292;2023-05-10T02:38:06;12.02;;;4.40;;
78004;SDS011;67209;51.698;-0.292;2023-05-10T02:40:33;9.90;;;3.83;;
78004;SDS011;67209;51.698;-0.292;2023-05-10T02:42:59;11.57;;;4.10;;
78004;SDS011;67209;51.698;-0.292;2023-05-10T02:45:29;10.25;;;4.20;;
78004;SDS011;67209;51.698;-0.292;2023-05-10T02:47:56;9.27;;;3.28;;
78004;SDS011;67209;51.698;-0.292;2023-05-10T02:50:22;8.43;;;3.97;;
78004;SDS011;67209;51.698;-0.292;2023-05-10T02:52:51;11.85;;;4.10;;
78004;SDS011;67209;51.698;-0.292;2023-05-10T02:55:19;9.73;;;4.20;;
78004;SDS011;67209;51.698;-0.292;2023-05-10T02:57:55;9.55;;;4.32;;
78004;SDS011;67209;51.698;-0.292;2023-05-10T03:00:22;12.95;;;4.60;;
78004;SDS011;67209;51.698;-0.292;2023-05-10T03:02:49;10.85;;;4.38;;
78004;SDS011;67209;51.698;-0.292;2023-05-10T03:05:15;9.65;;;3.75;;
78004;SDS011;67209;51.698;-0.292;2023-05-10T03:07:42;10.55;;;4.28;;
78004;SDS011;67209;51.698;-0.292;2023-05-10T03:10:08;7.47;;;3.72;;
78004;SDS011;67209;51.698;-0.292;2023-05-10T03:15:25;8.75;;;3.63;;
78004;SDS011;67209;51.698;-0.292;2023-05-10T03:17:57;9.57;;;3.88;;
78004;SDS011;67209;51.698;-0.292;2023-05-10T03:22:55;8.35;;;3.58;;
78004;SDS011;67209;51.698;-0.292;2023-05-10T03:25:21;9.00;;;3.70;;
78004;SDS011;67209;51.698;-0.292;2023-05-10T03:27:48;10.95;;;3.60;;
78004;SDS011;67209;51.698;-0.292;2023-05-10T03:30:15;7.82;;;3.03;;
78004;SDS011;67209;51.698;-0.292;2023-05-10T03:32:41;11.60;;;3.60;;
78004;SDS011;67209;51.698;-0.292;2023-05-10T03:35:11;7.95;;;3.47;;
78004;SDS011;67209;51.698;-0.292;2023-05-10T03:37:38;9.65;;;3.60;;
78004;SDS011;67209;51.698;-0.292;2023-05-10T03:40:04;5.90;;;2.83;;
78004;SDS011;67209;51.698;-0.292;2023-05-10T03:42:30;6.78;;;3.40;;
78004;SDS011;67209;51.698;-0.292;2023-05-10T03:44:57;10.75;;;3.20;;
78004;SDS011;67209;51.698;-0.292;2023-05-10T03:47:23;5.70;;;3.33;;
78004;SDS011;67209;51.698;-0.292;2023-05-10T03:49:49;10.40;;;2.83;;
78004;SDS011;67209;51.698;-0.292;2023-05-10T03:52:15;4.78;;;2.63;;
78004;SDS011;67209;51.698;-0.292;2023-05-10T03:54:41;6.78;;;2.67;;
78004;SDS011;67209;51.698;-0.292;2023-05-10T03:57:07;7.72;;;3.22;;
78004;SDS011;67209;51.698;-0.292;2023-05-10T03:59:33;8.05;;;3.50;;
78004;SDS011;67209;51.698;-0.292;2023-05-10T04:01:59;7.78;;;3.40;;
78004;SDS011;67209;51.698;-0.292;2023-05-10T04:04:25;8.23;;;3.55;;
78004;SDS011;67209;51.698;-0.292;2023-05-10T04:06:51;7.72;;;3.10;;
78004;SDS011;67209;51.698;-0.292;2023-05-10T04:09:17;9.13;;;3.22;;
78004;SDS011;67209;51.698;-0.292;2023-05-10T04:11:43;6.65;;;3.42;;
78004;SDS011;67209;51.698;-0.292;2023-05-10T04:14:09;10.20;;;3.22;;
78004;SDS011;67209;51.698;-0.292;2023-05-10T04:16:35;9.98;;;3.20;;
78004;SDS011;67209;51.698;-0.292;2023-05-10T04:19:01;8.13;;;3.03;;
78004;SDS011;67209;51.698;-0.292;2023-05-10T04:21:27;7.05;;;3.33;;
78004;SDS011;67209;51.698;-0.292;2023-05-10T04:23:53;12.98;;;3.30;;
78004;SDS011;67209;51.698;-0.292;2023-05-10T04:26:19;10.63;;;3.60;;
78004;SDS011;67209;51.698;-0.292;2023-05-10T04:28:46;9.18;;;2.75;;
78004;SDS011;67209;51.698;-0.292;2023-05-10T04:31:12;10.57;;;3.72;;
78004;SDS011;67209;51.698;-0.292;2023-05-10T04:33:38;9.18;;;3.30;;
78004;SDS011;67209;51.698;-0.292;2023-05-10T04:36:05;10.25;;;4.28;;
78004;SDS011;67209;51.698;-0.292;2023-05-10T04:38:31;11.63;;;3.25;;
78004;SDS011;67209;51.698;-0.292;2023-05-10T04:41:09;9.77;;;3.80;;
78004;SDS011;67209;51.698;-0.292;2023-05-10T04:43:36;10.05;;;3.03;;
78004;SDS011;67209;51.698;-0.292;2023-05-10T04:46:02;6.75;;;3.55;;
78004;SDS011;67209;51.698;-0.292;2023-05-10T04:48:28;7.60;;;3.40;;
78004;SDS011;67209;51.698;-0.292;2023-05-10T04:50:54;7.45;;;2.88;;
78004;SDS011;67209;51.698;-0.292;2023-05-10T04:53:21;14.85;;;3.38;;
78004;SDS011;67209;51.698;-0.292;2023-05-10T04:55:47;10.65;;;3.10;;
78004;SDS011;67209;51.698;-0.292;2023-05-10T04:58:13;9.70;;;3.83;;
78004;SDS011;67209;51.698;-0.292;2023-05-10T05:00:39;8.35;;;3.05;;
78004;SDS011;67209;51.698;-0.292;2023-05-10T05:03:06;9.65;;;3.10;;
78004;SDS011;67209;51.698;-0.292;2023-05-10T05:05:32;12.38;;;3.50;;
78004;SDS011;67209;51.698;-0.292;2023-05-10T05:07:58;9.57;;;3.78;;
78004;SDS011;67209;51.698;-0.292;2023-05-10T05:10:24;13.75;;;3.63;;
78004;SDS011;67209;51.698;-0.292;2023-05-10T05:12:50;10.00;;;3.67;;
78004;SDS011;67209;51.698;-0.292;2023-05-10T05:15:16;10.65;;;3.58;;
78004;SDS011;67209;51.698;-0.292;2023-05-10T05:17:42;8.23;;;3.38;;
78004;SDS011;67209;51.698;-0.292;2023-05-10T05:20:09;10.32;;;3.80;;
78004;SDS011;67209;51.698;-0.292;2023-05-10T05:22:36;7.78;;;3.70;;
78004;SDS011;67209;51.698;-0.292;2023-05-10T05:25:02;10.73;;;3.90;;
78004;SDS011;67209;51.698;-0.292;2023-05-10T05:27:28;11.32;;;4.13;;
78004;SDS011;67209;51.698;-0.292;2023-05-10T05:29:55;9.60;;;3.95;;
78004;SDS011;67209;51.698;-0.292;2023-05-10T05:32:21;9.63;;;4.07;;
78004;SDS011;67209;51.698;-0.292;2023-05-10T05:34:47;11.95;;;5.03;;
78004;SDS011;67209;51.698;-0.292;2023-05-10T05:37:14;11.85;;;4.53;;
78004;SDS011;67209;51.698;-0.292;2023-05-10T05:39:40;13.82;;;4.30;;
78004;SDS011;67209;51.698;-0.292;2023-05-10T05:42:07;11.18;;;4.85;;
78004;SDS011;67209;51.698;-0.292;2023-05-10T05:44:33;8.38;;;3.08;;
78004;SDS011;67209;51.698;-0.292;2023-05-10T05:46:59;11.20;;;4.10;;
78004;SDS011;67209;51.698;-0.292;2023-05-10T05:49:25;9.23;;;4.65;;
78004;SDS011;67209;51.698;-0.292;2023-05-10T05:51:51;10.57;;;4.65;;
78004;SDS011;67209;51.698;-0.292;2023-05-10T05:54:17;11.30;;;5.03;;
78004;SDS011;67209;51.698;-0.292;2023-05-10T05:56:43;9.68;;;4.75;;
78004;SDS011;67209;51.698;-0.292;2023-05-10T05:59:09;9.35;;;4.28;;
78004;SDS011;67209;51.698;-0.292;2023-05-10T06:01:36;10.15;;;4.60;;
78004;SDS011;67209;51.698;-0.292;2023-05-10T06:04:02;9.48;;;4.35;;
78004;SDS011;67209;51.698;-0.292;2023-05-10T06:06:28;5.97;;;3.50;;
78004;SDS011;67209;51.698;-0.292;2023-05-10T06:08:54;8.90;;;3.33;;
78004;SDS011;67209;51.698;-0.292;2023-05-10T06:11:20;6.07;;;3.10;;
78004;SDS011;67209;51.698;-0.292;2023-05-10T06:13:46;6.22;;;2.85;;
78004;SDS011;67209;51.698;-0.292;2023-05-10T06:16:13;7.50;;;2.97;;
78004;SDS011;67209;51.698;-0.292;2023-05-10T06:18:39;8.07;;;3.42;;
78004;SDS011;67209;51.698;-0.292;2023-05-10T06:21:05;9.50;;;3.42;;
78004;SDS011;67209;51.698;-0.292;2023-05-10T06:23:31;7.25;;;3.05;;
78004;SDS011;67209;51.698;-0.292;2023-05-10T06:25:57;5.35;;;2.80;;
78004;SDS011;67209;51.698;-0.292;2023-05-10T06:28:23;7.25;;;3.10;;
78004;SDS011;67209;51.698;-0.292;2023-05-10T06:30:49;9.43;;;3.03;;
78004;SDS011;67209;51.698;-0.292;2023-05-10T06:33:15;9.65;;;3.10;;
78004;SDS011;67209;51.698;-0.292;2023-05-10T06:35:41;9.30;;;2.97;;
78004;SDS011;67209;51.698;-0.292;2023-05-10T06:38:07;6.28;;;2.90;;
78004;SDS011;67209;51.698;-0.292;2023-05-10T06:40:33;8.60;;;3.28;;
78004;SDS011;67209;51.698;-0.292;2023-05-10T06:42:59;8.45;;;2.75;;
78004;SDS011;67209;51.698;-0.292;2023-05-10T06:45:25;6.38;;;3.05;;
78004;SDS011;67209;51.698;-0.292;2023-05-10T06:47:51;5.60;;;2.47;;
78004;SDS011;67209;51.698;-0.292;2023-05-10T06:50:17;6.63;;;2.70;;
78004;SDS011;67209;51.698;-0.292;2023-05-10T06:52:43;6.38;;;2.90;;
78004;SDS011;67209;51.698;-0.292;2023-05-10T06:55:10;7.18;;;2.75;;
78004;SDS011;67209;51.698;-0.292;2023-05-10T06:57:36;8.75;;;2.72;;
78004;SDS011;67209;51.698;-0.292;2023-05-10T07:00:02;6.13;;;3.00;;
78004;SDS011;67209;51.698;-0.292;2023-05-10T07:02:29;7.53;;;2.60;;
78004;SDS011;67209;51.698;-0.292;2023-05-10T07:04:55;8.73;;;3.10;;
78004;SDS011;67209;51.698;-0.292;2023-05-10T07:07:22;6.70;;;2.63;;
78004;SDS011;67209;51.698;-0.292;2023-05-10T07:09:48;6.38;;;2.40;;
78004;SDS011;67209;51.698;-0.292;2023-05-10T07:12:15;4.85;;;2.28;;
78004;SDS011;67209;51.698;-0.292;2023-05-10T07:14:41;6.32;;;2.35;;
78004;SDS011;67209;51.698;-0.292;2023-05-10T07:17:07;9.23;;;2.83;;
78004;SDS011;67209;51.698;-0.292;2023-05-10T07:19:33;5.93;;;1.98;;
78004;SDS011;67209;51.698;-0.292;2023-05-10T07:21:59;6.03;;;2.08;;
78004;SDS011;67209;51.698;-0.292;2023-05-10T07:24:25;12.15;;;2.65;;
78004;SDS011;67209;51.698;-0.292;2023-05-10T07:26:51;5.75;;;1.90;;
78004;SDS011;67209;51.698;-0.292;2023-05-10T07:29:17;8.57;;;2.63;;
78004;SDS011;67209;51.698;-0.292;2023-05-10T07:31:43;8.13;;;2.58;;
78004;SDS011;67209;51.698;-0.292;2023-05-10T07:34:09;4.50;;;2.03;;
78004;SDS011;67209;51.698;-0.292;2023-05-10T07:36:35;7.93;;;2.33;;
78004;SDS011;67209;51.698;-0.292;2023-05-10T07:39:01;5.82;;;1.90;;
78004;SDS011;67209;51.698;-0.292;2023-05-10T07:41:28;5.70;;;1.98;;
78004;SDS011;67209;51.698;-0.292;2023-05-10T07:43:54;8.75;;;2.40;;
78004;SDS011;67209;51.698;-0.292;2023-05-10T07:46:20;9.13;;;2.88;;
78004;SDS011;67209;51.698;-0.292;2023-05-10T07:48:46;8.00;;;2.30;;
78004;SDS011;67209;51.698;-0.292;2023-05-10T07:51:11;7.65;;;2.50;;
78004;SDS011;67209;51.698;-0.292;2023-05-10T07:53:38;8.80;;;2.28;;
78004;SDS011;67209;51.698;-0.292;2023-05-10T07:56:23;7.40;;;1.90;;
78004;SDS011;67209;51.698;-0.292;2023-05-10T07:58:51;5.32;;;2.00;;
78004;SDS011;67209;51.698;-0.292;2023-05-10T08:01:17;3.30;;;1.92;;
78004;SDS011;67209;51.698;-0.292;2023-05-10T08:03:43;5.53;;;1.73;;
78004;SDS011;67209;51.698;-0.292;2023-05-10T08:06:09;5.72;;;2.13;;
78004;SDS011;67209;51.698;-0.292;2023-05-10T08:08:36;8.10;;;2.10;;
78004;SDS011;67209;51.698;-0.292;2023-05-10T08:11:02;5.18;;;2.00;;
78004;SDS011;67209;51.698;-0.292;2023-05-10T08:13:28;8.02;;;2.20;;
78004;SDS011;67209;51.698;-0.292;2023-05-10T08:15:54;6.47;;;2.05;;
78004;SDS011;67209;51.698;-0.292;2023-05-10T08:18:20;6.30;;;1.85;;
78004;SDS011;67209;51.698;-0.292;2023-05-10T08:20:46;7.93;;;2.22;;
78004;SDS011;67209;51.698;-0.292;2023-05-10T08:23:12;9.93;;;2.58;;
78004;SDS011;67209;51.698;-0.292;2023-05-10T08:25:38;7.45;;;2.97;;
78004;SDS011;67209;51.698;-0.292;2023-05-10T08:28:05;8.45;;;1.83;;
78004;SDS011;67209;51.698;-0.292;2023-05-10T08:30:31;8.27;;;2.08;;
78004;SDS011;67209;51.698;-0.292;2023-05-10T08:32:56;6.57;;;2.35;;
78004;SDS011;67209;51.698;-0.292;2023-05-10T08:35:22;4.60;;;1.85;;
78004;SDS011;67209;51.698;-0.292;2023-05-10T08:37:49;2.65;;;1.70;;
78004;SDS011;67209;51.698;-0.292;2023-05-10T08:40:15;5.80;;;2.10;;
78004;SDS011;67209;51.698;-0.292;2023-05-10T08:42:43;6.32;;;2.13;;
78004;SDS011;67209;51.698;-0.292;2023-05-10T08:45:10;5.15;;;2.30;;
78004;SDS011;67209;51.698;-0.292;2023-05-10T08:47:36;8.38;;;1.85;;
78004;SDS011;67209;51.698;-0.292;2023-05-10T08:50:03;5.03;;;1.92;;
78004;SDS011;67209;51.698;-0.292;2023-05-10T08:52:29;7.13;;;2.22;;
78004;SDS011;67209;51.698;-0.292;2023-05-10T08:54:56;6.15;;;1.80;;
78004;SDS011;67209;51.698;-0.292;2023-05-10T08:57:22;4.75;;;2.03;;
78004;SDS011;67209;51.698;-0.292;2023-05-10T08:59:48;5.15;;;2.10;;
78004;SDS011;67209;51.698;-0.292;2023-05-10T09:02:14;4.13;;;1.83;;
78004;SDS011;67209;51.698;-0.292;2023-05-10T09:04:40;4.72;;;1.83;;
78004;SDS011;67209;51.698;-0.292;2023-05-10T09:07:07;7.30;;;1.88;;
78004;SDS011;67209;51.698;-0.292;2023-05-10T09:09:33;7.15;;;2.13;;
78004;SDS011;67209;51.698;-0.292;2023-05-10T09:11:59;3.10;;;1.70;;
78004;SDS011;67209;51.698;-0.292;2023-05-10T09:14:25;4.80;;;2.03;;
78004;SDS011;67209;51.698;-0.292;2023-05-10T09:16:51;4.05;;;2.40;;
78004;SDS011;67209;51.698;-0.292;2023-05-10T09:19:19;4.43;;;1.55;;
78004;SDS011;67209;51.698;-0.292;2023-05-10T09:21:45;3.00;;;1.70;;
78004;SDS011;67209;51.698;-0.292;2023-05-10T09:24:11;5.65;;;2.30;;
78004;SDS011;67209;51.698;-0.292;2023-05-10T09:26:47;5.35;;;2.08;;
78004;SDS011;67209;51.698;-0.292;2023-05-10T09:29:13;3.35;;;1.70;;
78004;SDS011;67209;51.698;-0.292;2023-05-10T09:31:58;5.00;;;2.13;;
78004;SDS011;67209;51.698;-0.292;2023-05-10T09:34:30;4.90;;;2.30;;
78004;SDS011;67209;51.698;-0.292;2023-05-10T09:36:58;6.22;;;2.10;;
78004;SDS011;67209;51.698;-0.292;2023-05-10T09:39:33;5.88;;;2.10;;
78004;SDS011;67209;51.698;-0.292;2023-05-10T09:41:59;3.85;;;1.90;;
78004;SDS011;67209;51.698;-0.292;2023-05-10T09:44:28;4.70;;;1.90;;
78004;SDS011;67209;51.698;-0.292;2023-05-10T09:46:54;5.10;;;2.60;;
78004;SDS011;67209;51.698;-0.292;2023-05-10T09:49:21;12.57;;;2.30;;
78004;SDS011;67209;51.698;-0.292;2023-05-10T09:51:47;6.75;;;1.70;;
78004;SDS011;67209;51.698;-0.292;2023-05-10T09:54:23;4.05;;;1.75;;
78004;SDS011;67209;51.698;-0.292;2023-05-10T09:56:49;7.22;;;2.10;;
78004;SDS011;67209;51.698;-0.292;2023-05-10T09:59:15;4.90;;;1.77;;
78004;SDS011;67209;51.698;-0.292;2023-05-10T10:01:42;6.32;;;2.30;;
78004;SDS011;67209;51.698;-0.292;2023-05-10T10:04:14;4.32;;;1.85;;
78004;SDS011;67209;51.698;-0.292;2023-05-10T10:06:41;6.57;;;2.38;;
78004;SDS011;67209;51.698;-0.292;2023-05-10T10:09:07;6.70;;;1.90;;
78004;SDS011;67209;51.698;-0.292;2023-05-10T10:11:36;5.60;;;2.20;;
78004;SDS011;67209;51.698;-0.292;2023-05-10T10:14:03;5.80;;;2.17;;
78004;SDS011;67209;51.698;-0.292;2023-05-10T10:16:29;5.35;;;2.20;;
78004;SDS011;67209;51.698;-0.292;2023-05-10T10:18:56;7.78;;;2.13;;
78004;SDS011;67209;51.698;-0.292;2023-05-10T10:21:22;4.18;;;1.75;;
78004;SDS011;67209;51.698;-0.292;2023-05-10T10:23:49;4.53;;;1.67;;
78004;SDS011;67209;51.698;-0.292;2023-05-10T10:26:15;3.65;;;1.52;;
78004;SDS011;67209;51.698;-0.292;2023-05-10T10:36:45;4.90;;;2.28;;
78004;SDS011;67209;51.698;-0.292;2023-05-10T10:39:11;4.45;;;2.22;;
78004;SDS011;67209;51.698;-0.292;2023-05-10T10:41:59;3.63;;;1.95;;
78004;SDS011;67209;51.698;-0.292;2023-05-10T10:44:25;3.42;;;1.42;;
78004;SDS011;67209;51.698;-0.292;2023-05-10T10:52:39;6.28;;;2.13;;
78004;SDS011;67209;51.698;-0.292;2023-05-10T10:57:42;5.28;;;1.60;;
78004;SDS011;67209;51.698;-0.292;2023-05-10T11:02:51;4.32;;;1.77;;
78004;SDS011;67209;51.698;-0.292;2023-05-10T11:07:53;6.40;;;1.80;;
78004;SDS011;67209;51.698;-0.292;2023-05-10T11:10:23;4.95;;;1.80;;
78004;SDS011;67209;51.698;-0.292;2023-05-10T11:13:08;4.68;;;1.90;;
78004;SDS011;67209;51.698;-0.292;2023-05-10T11:15:38;3.25;;;1.60;;
78004;SDS011;67209;51.698;-0.292;2023-05-10T11:18:18;4.57;;;2.15;;
78004;SDS011;67209;51.698;-0.292;2023-05-10T11:20:44;2.05;;;1.23;;
78004;SDS011;67209;51.698;-0.292;2023-05-10T11:23:15;6.72;;;1.92;;
78004;SDS011;67209;51.698;-0.292;2023-05-10T11:25:42;4.80;;;1.90;;
78004;SDS011;67209;51.698;-0.292;2023-05-10T11:28:09;3.50;;;1.73;;
78004;SDS011;67209;51.698;-0.292;2023-05-10T11:30:35;2.85;;;1.42;;
78004;SDS011;67209;51.698;-0.292;2023-05-10T11:33:02;4.93;;;1.55;;
78004;SDS011;67209;51.698;-0.292;2023-05-10T11:35:28;5.53;;;1.48;;
78004;SDS011;67209;51.698;-0.292;2023-05-10T11:37:54;5.28;;;1.65;;
78004;SDS011;67209;51.698;-0.292;2023-05-10T11:40:23;3.90;;;1.50;;
78004;SDS011;67209;51.698;-0.292;2023-05-10T11:42:49;2.50;;;1.70;;
78004;SDS011;67209;51.698;-0.292;2023-05-10T11:45:15;4.13;;;1.75;;
78004;SDS011;67209;51.698;-0.292;2023-05-10T11:47:42;4.90;;;1.60;;
78004;SDS011;67209;51.698;-0.292;2023-05-10T11:50:08;6.93;;;2.17;;
78004;SDS011;67209;51.698;-0.292;2023-05-10T11:52:35;4.53;;;1.50;;
78004;SDS011;67209;51.698;-0.292;2023-05-10T11:55:04;4.25;;;1.60;;
78004;SDS011;67209;51.698;-0.292;2023-05-10T11:57:30;3.70;;;1.50;;
78004;SDS011;67209;51.698;-0.292;2023-05-10T11:59:57;5.13;;;1.70;;
78004;SDS011;67209;51.698;-0.292;2023-05-10T12:02:23;4.50;;;1.80;;
78004;SDS011;67209;51.698;-0.292;2023-05-10T12:04:50;2.58;;;1.40;;
78004;SDS011;67209;51.698;-0.292;2023-05-10T12:07:16;3.35;;;1.60;;
78004;SDS011;67209;51.698;-0.292;2023-05-10T12:10:02;5.18;;;1.63;;
78004;SDS011;67209;51.698;-0.292;2023-05-10T12:12:34;4.20;;;1.73;;
78004;SDS011;67209;51.698;-0.292;2023-05-10T12:15:01;7.53;;;2.83;;
78004;SDS011;67209;51.698;-0.292;2023-05-10T12:17:28;3.97;;;2.17;;
78004;SDS011;67209;51.698;-0.292;2023-05-10T12:19:58;4.22;;;2.22;;
78004;SDS011;67209;51.698;-0.292;2023-05-10T12:22:24;8.32;;;2.33;;
78004;SDS011;67209;51.698;-0.292;2023-05-10T12:24:50;6.38;;;2.60;;
78004;SDS011;67209;51.698;-0.292;2023-05-10T12:27:17;5.82;;;1.83;;
78004;SDS011;67209;51.698;-0.292;2023-05-10T12:29:42;9.40;;;2.53;;
78004;SDS011;67209;51.698;-0.292;2023-05-10T12:32:09;4.00;;;2.33;;
78004;SDS011;67209;51.698;-0.292;2023-05-10T12:34:35;6.32;;;1.95;;
78004;SDS011;67209;51.698;-0.292;2023-05-10T12:37:03;4.00;;;1.70;;
78004;SDS011;67209;51.698;-0.292;2023-05-10T12:39:39;3.17;;;1.70;;
78004;SDS011;67209;51.698;-0.292;2023-05-10T12:42:05;5.90;;;2.00;;
78004;SDS011;67209;51.698;-0.292;2023-05-10T12:44:32;3.72;;;1.30;;
78004;SDS011;67209;51.698;-0.292;2023-05-10T12:46:58;4.32;;;1.45;;
78004;SDS011;67209;51.698;-0.292;2023-05-10T12:49:24;4.15;;;1.27;;
78004;SDS011;67209;51.698;-0.292;2023-05-10T12:51:50;4.93;;;1.40;;
78004;SDS011;67209;51.698;-0.292;2023-05-10T12:54:16;2.85;;;1.45;;
78004;SDS011;67209;51.698;-0.292;2023-05-10T12:56:42;3.05;;;2.05;;
78004;SDS011;67209;51.698;-0.292;2023-05-10T12:59:08;3.42;;;2.03;;
78004;SDS011;67209;51.698;-0.292;2023-05-10T13:01:35;6.00;;;2.30;;
78004;SDS011;67209;51.698;-0.292;2023-05-10T13:04:01;3.38;;;1.48;;
78004;SDS011;67209;51.698;-0.292;2023-05-10T13:06:27;3.67;;;2.20;;
78004;SDS011;67209;51.698;-0.292;2023-05-10T13:08:53;5.03;;;2.15;;
78004;SDS011;67209;51.698;-0.292;2023-05-10T13:11:19;6.88;;;1.75;;
78004;SDS011;67209;51.698;-0.292;2023-05-10T13:13:46;4.65;;;2.10;;
78004;SDS011;67209;51.698;-0.292;2023-05-10T13:16:12;9.93;;;2.67;;
78004;SDS011;67209;51.698;-0.292;2023-05-10T13:18:38;6.72;;;2.38;;
78004;SDS011;67209;51.698;-0.292;2023-05-10T13:21:04;8.35;;;2.72;;
78004;SDS011;67209;51.698;-0.292;2023-05-10T13:23:30;10.57;;;2.92;;
78004;SDS011;67209;51.698;-0.292;2023-05-10T13:25:56;7.28;;;3.00;;
78004;SDS011;67209;51.698;-0.292;2023-05-10T13:28:22;7.78;;;3.55;;
78004;SDS011;67209;51.698;-0.292;2023-05-10T13:30:48;7.13;;;2.22;;
78004;SDS011;67209;51.698;-0.292;2023-05-10T13:33:14;4.32;;;2.00;;
78004;SDS011;67209;51.698;-0.292;2023-05-10T13:35:40;2.83;;;1.50;;
78004;SDS011;67209;51.698;-0.292;2023-05-10T13:38:06;2.92;;;1.30;;
78004;SDS011;67209;51.698;-0.292;2023-05-10T13:40:32;3.28;;;1.20;;
78004;SDS011;67209;51.698;-0.292;2023-05-10T13:42:58;7.18;;;2.10;;
78004;SDS011;67209;51.698;-0.292;2023-05-10T13:45:25;3.10;;;1.25;;
78004;SDS011;67209;51.698;-0.292;2023-05-10T13:47:51;2.70;;;1.33;;
78004;SDS011;67209;51.698;-0.292;2023-05-10T13:50:17;5.05;;;1.40;;
78004;SDS011;67209;51.698;-0.292;2023-05-10T13:52:43;3.60;;;1.88;;
78004;SDS011;67209;51.698;-0.292;2023-05-10T13:55:09;5.00;;;2.20;;
78004;SDS011;67209;51.698;-0.292;2023-05-10T13:57:37;5.70;;;2.10;;
78004;SDS011;67209;51.698;-0.292;2023-05-10T14:00:03;5.68;;;1.98;;
78004;SDS011;67209;51.698;-0.292;2023-05-10T14:02:29;5.28;;;1.70;;
78004;SDS011;67209;51.698;-0.292;2023-05-10T14:04:55;4.45;;;1.92;;
78004;SDS011;67209;51.698;-0.292;2023-05-10T14:07:21;6.55;;;2.22;;
78004;SDS011;67209;51.698;-0.292;2023-05-10T14:09:47;3.42;;;2.10;;
78004;SDS011;67209;51.698;-0.292;2023-05-10T14:12:13;3.58;;;1.80;;
78004;SDS011;67209;51.698;-0.292;2023-05-10T14:14:40;4.20;;;1.80;;
78004;SDS011;67209;51.698;-0.292;2023-05-10T14:17:06;4.82;;;2.50;;
78004;SDS011;67209;51.698;-0.292;2023-05-10T14:19:32;4.95;;;2.00;;
78004;SDS011;67209;51.698;-0.292;2023-05-10T14:21:59;8.90;;;2.08;;
78004;SDS011;67209;51.698;-0.292;2023-05-10T14:24:25;3.38;;;1.98;;
78004;SDS011;67209;51.698;-0.292;2023-05-10T14:26:51;7.68;;;2.17;;
78004;SDS011;67209;51.698;-0.292;2023-05-10T14:29:19;6.90;;;2.63;;
78004;SDS011;67209;51.698;-0.292;2023-05-10T14:31:45;4.55;;;1.92;;
78004;SDS011;67209;51.698;-0.292;2023-05-10T14:34:11;6.28;;;2.67;;
78004;SDS011;67209;51.698;-0.292;2023-05-10T14:36:37;4.05;;;1.90;;
78004;SDS011;67209;51.698;-0.292;2023-05-10T14:39:03;5.03;;;1.90;;
78004;SDS011;67209;51.698;-0.292;2023-05-10T14:41:29;3.97;;;2.22;;
78004;SDS011;67209;51.698;-0.292;2023-05-10T14:43:55;5.82;;;2.90;;
78004;SDS011;67209;51.698;-0.292;2023-05-10T14:46:22;4.75;;;2.05;;
78004;SDS011;67209;51.698;-0.292;2023-05-10T14:48:47;3.80;;;1.80;;
78004;SDS011;67209;51.698;-0.292;2023-05-10T14:51:14;6.82;;;2.40;;
78004;SDS011;67209;51.698;-0.292;2023-05-10T14:53:40;4.70;;;2.05;;
78004;SDS011;67209;51.698;-0.292;2023-05-10T14:56:06;6.15;;;2.35;;
78004;SDS011;67209;51.698;-0.292;2023-05-10T14:58:32;4.63;;;2.00;;
78004;SDS011;67209;51.698;-0.292;2023-05-10T15:00:58;3.90;;;1.80;;
78004;SDS011;67209;51.698;-0.292;2023-05-10T15:03:24;2.67;;;1.60;;
78004;SDS011;67209;51.698;-0.292;2023-05-10T15:05:50;5.28;;;2.00;;
78004;SDS011;67209;51.698;-0.292;2023-05-10T15:08:16;3.65;;;1.60;;
78004;SDS011;67209;51.698;-0.292;2023-05-10T15:10:43;4.30;;;1.70;;
78004;SDS011;67209;51.698;-0.292;2023-05-10T15:13:09;5.72;;;2.13;;
78004;SDS011;67209;51.698;-0.292;2023-05-10T15:15:35;4.80;;;2.05;;
78004;SDS011;67209;51.698;-0.292;2023-05-10T15:18:01;7.10;;;2.10;;